createdAt,value
2019-06-20T15:20:03.166Z,29.4
2019-06-20T15:25:04.277Z,29.1
2019-06-20T15:30:02.796Z,29.1
2019-06-20T15:35:02.033Z,29.2
2019-06-20T15:40:05.238Z,28.4
2019-06-20T15:45:01.658Z,28.4
2019-06-20T15:50:02.918Z,28
2019-06-20T15:55:01.743Z,27.5
2019-06-20T16:00:03.202Z,27.4
2019-06-20T16:05:02.395Z,27.5
2019-06-20T16:10:01.885Z,27.6
2019-06-20T16:15:02.662Z,27.5
2019-06-20T16:20:01.506Z,27.6
2019-06-20T16:25:02.831Z,28.1
2019-06-20T16:30:04.297Z,27.9
2019-06-20T16:35:02.778Z,27.9
2019-06-20T16:40:01.924Z,27.5
2019-06-20T16:45:02.557Z,27.5
2019-06-20T16:50:01.635Z,27.4
2019-06-20T16:55:02.678Z,27.4
2019-06-20T17:00:02.350Z,27.3
2019-06-20T17:05:02.880Z,27.1
2019-06-20T17:10:01.854Z,27.2
2019-06-20T17:15:02.939Z,27.1
2019-06-20T17:20:02.103Z,27
2019-06-20T17:25:02.939Z,27.1
2019-06-20T17:30:02.013Z,27.4
2019-06-20T17:35:03.334Z,27.5
2019-06-20T17:40:14.544Z,27
2019-06-20T17:45:02.819Z,26.9
2019-06-20T17:50:01.918Z,26.6
2019-06-20T17:55:03.225Z,26.5
2019-06-20T18:00:02.627Z,26.4
2019-06-20T18:05:03.219Z,26.2
2019-06-20T18:10:02.286Z,26.2
2019-06-20T18:15:03.361Z,26.2
2019-06-20T18:20:02.236Z,26.1
2019-06-20T18:25:01.407Z,26.1
2019-06-20T18:30:02.227Z,26.1
2019-06-20T18:35:02.565Z,25.8
2019-06-20T18:40:07.438Z,25.5
2019-06-20T18:45:01.394Z,25.5
2019-06-20T18:50:02.579Z,25.5
2019-06-20T18:55:01.766Z,25.3
2019-06-20T19:00:03.067Z,25.2
2019-06-20T19:05:04.286Z,24.9
2019-06-20T19:10:02.525Z,24.9
2019-06-20T19:15:01.662Z,24.8
2019-06-20T19:20:02.673Z,24.6
2019-06-20T19:25:03.994Z,24.5
2019-06-20T19:30:02.764Z,24.4
2019-06-20T19:35:02.816Z,24.2
2019-06-20T19:40:02.576Z,24.1
2019-06-20T19:45:01.699Z,24
2019-06-20T19:50:02.831Z,23.9
2019-06-20T19:55:01.775Z,23.9
2019-06-20T20:00:05.684Z,23.8
2019-06-20T20:05:17.662Z,23.8
2019-06-20T20:10:03.326Z,23.7
2019-06-20T20:15:02.074Z,23.6
2019-06-20T20:20:03.367Z,23.6
2019-06-20T20:25:04.539Z,23.4
2019-06-20T20:30:10.681Z,23.3
2019-06-20T20:35:02.014Z,23.3
2019-06-20T20:40:03.342Z,23.3
2019-06-20T20:45:02.357Z,23.2
2019-06-20T20:50:01.609Z,23.1
2019-06-20T20:55:02.763Z,23.1
2019-06-20T21:00:01.674Z,23.1
2019-06-20T21:05:02.455Z,23.1
2019-06-20T21:10:01.512Z,23
2019-06-20T21:15:01.931Z,22.9
2019-06-20T21:20:03.123Z,22.9
2019-06-20T21:25:02.046Z,22.9
2019-06-20T21:30:03.550Z,22.9
2019-06-20T21:35:01.838Z,22.8
2019-06-20T21:40:13.363Z,22.7
2019-06-20T21:45:02.047Z,22.7
2019-06-20T21:50:02.610Z,22.6
2019-06-20T21:55:01.831Z,22.4
2019-06-20T22:00:03.218Z,22.3
2019-06-20T22:05:02.091Z,22.1
2019-06-20T22:10:02.598Z,21.9
2019-06-20T22:15:01.678Z,21.7
2019-06-20T22:20:02.883Z,21.2
2019-06-20T22:25:02.043Z,21
2019-06-20T22:30:15.791Z,20.6
2019-06-20T22:35:02.006Z,20.6
2019-06-20T22:40:01.378Z,20.3
2019-06-20T22:45:02.453Z,20.1
2019-06-20T22:50:01.665Z,19.9
2019-06-20T22:55:02.403Z,19.8
2019-06-20T23:00:01.653Z,19.9
2019-06-20T23:05:02.672Z,19.9
2019-06-20T23:10:10.181Z,19.8
2019-06-20T23:15:02.850Z,19.6
2019-06-20T23:20:01.823Z,19.7
2019-06-20T23:25:02.930Z,19.7
2019-06-20T23:30:02.023Z,19.8
2019-06-20T23:35:03.199Z,19.8
2019-06-20T23:40:01.905Z,19.9
2019-06-20T23:45:02.917Z,19.9
2019-06-20T23:50:01.860Z,19.9
2019-06-20T23:55:03.195Z,19.9
